createdAt,value
2022-12-29T00:01:02.839Z,10.77
2022-12-29T00:03:30.438Z,10.76
2022-12-29T00:05:59.443Z,10.93
2022-12-29T00:08:42.229Z,10.85
2022-12-29T00:11:12.162Z,10.88
2022-12-29T00:13:58.274Z,10.88
2022-12-29T00:16:25.913Z,10.93
2022-12-29T00:18:53.721Z,10.94
2022-12-29T00:21:41.587Z,10.99
2022-12-29T00:24:27.855Z,10.98
2022-12-29T00:27:19.055Z,11.06
2022-12-29T00:30:05.103Z,11.02
2022-12-29T00:32:50.966Z,11.00
2022-12-29T00:35:34.579Z,11.02
2022-12-29T00:38:23.651Z,11.04
2022-12-29T00:41:09.459Z,11.03
2022-12-29T00:43:55.391Z,11.09
2022-12-29T00:46:22.895Z,10.99
2022-12-29T00:49:08.889Z,10.94
2022-12-29T00:51:36.284Z,11.07
2022-12-29T00:54:03.802Z,11.11
2022-12-29T00:56:31.221Z,11.06
2022-12-29T00:59:02.598Z,11.08
2022-12-29T01:01:30.695Z,11.04
2022-12-29T01:04:02.200Z,11.13
2022-12-29T01:06:33.073Z,11.11
2022-12-29T01:09:19.119Z,11.07
2022-12-29T01:11:46.557Z,11.07
2022-12-29T01:14:14.086Z,11.15
2022-12-29T01:16:41.500Z,11.19
2022-12-29T01:19:08.996Z,11.20
2022-12-29T01:21:36.516Z,11.27
2022-12-29T01:24:04.087Z,11.19
2022-12-29T01:26:31.504Z,11.10
2022-12-29T01:28:59.016Z,11.19
2022-12-29T01:31:26.448Z,11.21
2022-12-29T01:33:54.709Z,11.27
2022-12-29T01:36:22.046Z,11.22
2022-12-29T01:38:49.716Z,11.22
2022-12-29T01:41:17.851Z,11.22
2022-12-29T01:43:52.777Z,11.24
2022-12-29T01:46:41.245Z,11.22
2022-12-29T01:49:13.098Z,11.20
2022-12-29T01:51:54.355Z,11.17
2022-12-29T01:54:29.440Z,11.18
2022-12-29T01:57:00.683Z,11.23
2022-12-29T01:59:34.250Z,11.28
2022-12-29T02:02:01.981Z,11.35
2022-12-29T02:04:32.569Z,11.36
2022-12-29T02:07:08.101Z,11.28
2022-12-29T02:09:36.989Z,11.29
2022-12-29T02:12:04.543Z,11.43
2022-12-29T02:14:31.971Z,11.42
2022-12-29T02:17:08.345Z,11.38
2022-12-29T02:19:56.704Z,11.39
2022-12-29T02:23:15.363Z,11.26
2022-12-29T02:26:12.818Z,11.33
2022-12-29T02:28:53.404Z,11.31
2022-12-29T02:31:29.795Z,11.34
2022-12-29T02:34:17.611Z,11.34
2022-12-29T02:37:09.280Z,11.32
2022-12-29T02:39:53.204Z,11.38
2022-12-29T02:42:20.495Z,11.28
2022-12-29T02:44:50.646Z,11.34
2022-12-29T02:47:32.042Z,11.32
2022-12-29T02:50:08.483Z,11.27
2022-12-29T02:52:48.013Z,11.26
2022-12-29T02:55:15.470Z,11.33
2022-12-29T02:57:43.041Z,11.39
2022-12-29T03:00:16.726Z,11.38
2022-12-29T03:02:57.737Z,11.35
2022-12-29T03:05:43.330Z,11.44
2022-12-29T03:08:21.040Z,11.32
2022-12-29T03:10:54.326Z,11.41
2022-12-29T03:14:00.948Z,11.47
2022-12-29T03:16:47.726Z,11.47
2022-12-29T03:19:36.530Z,11.47
2022-12-29T03:22:25.561Z,11.53
2022-12-29T03:25:11.594Z,11.50
2022-12-29T03:27:44.472Z,11.43
2022-12-29T03:30:12.286Z,11.61
2022-12-29T03:32:55.541Z,11.64
2022-12-29T03:35:27.259Z,11.60
2022-12-29T03:38:24.487Z,11.59
2022-12-29T03:40:54.010Z,11.48
2022-12-29T03:43:21.857Z,11.53
2022-12-29T03:45:49.905Z,11.49
2022-12-29T03:48:17.330Z,11.50
2022-12-29T03:50:46.121Z,11.41
2022-12-29T03:53:13.529Z,11.49
2022-12-29T03:55:41.200Z,11.48
2022-12-29T03:58:08.827Z,11.51
2022-12-29T04:00:55.301Z,11.56
2022-12-29T04:03:23.518Z,11.52
2022-12-29T04:05:51.777Z,11.38
2022-12-29T04:08:19.222Z,11.30
2022-12-29T04:10:46.662Z,11.34
2022-12-29T04:13:16.727Z,11.32
2022-12-29T04:15:46.369Z,11.33
2022-12-29T04:18:14.325Z,11.33
2022-12-29T04:21:00.668Z,11.37
2022-12-29T04:23:30.521Z,11.24
2022-12-29T04:25:58.230Z,11.32
2022-12-29T04:28:26.688Z,11.29
2022-12-29T04:31:11.051Z,11.27
2022-12-29T04:33:41.540Z,11.31
2022-12-29T04:36:09.085Z,11.26
2022-12-29T04:38:38.254Z,11.26
2022-12-29T04:41:06.445Z,11.28
2022-12-29T04:43:36.372Z,11.35
2022-12-29T04:46:39.276Z,11.40
2022-12-29T04:49:11.020Z,11.53
2022-12-29T04:51:52.824Z,11.47
2022-12-29T04:54:20.720Z,11.37
2022-12-29T04:56:55.919Z,11.24
2022-12-29T04:59:24.874Z,11.09
2022-12-29T05:01:55.916Z,11.14
2022-12-29T05:04:23.456Z,11.26
2022-12-29T05:06:50.790Z,11.30
2022-12-29T05:09:18.766Z,11.13
2022-12-29T05:11:46.310Z,11.22
2022-12-29T05:14:13.859Z,11.19
2022-12-29T05:16:42.158Z,11.23
2022-12-29T05:19:10.701Z,11.32
2022-12-29T05:21:38.719Z,11.12
2022-12-29T05:24:06.492Z,11.08
2022-12-29T05:26:33.874Z,11.12
2022-12-29T05:29:07.698Z,11.00
2022-12-29T05:31:36.639Z,10.88
2022-12-29T05:34:05.410Z,10.88
2022-12-29T05:36:37.448Z,11.03
2022-12-29T05:39:06.363Z,11.01
2022-12-29T05:41:35.279Z,11.08
2022-12-29T05:44:25.440Z,10.82
2022-12-29T05:47:12.914Z,10.79
2022-12-29T05:49:46.655Z,10.81
2022-12-29T05:52:32.656Z,10.70
2022-12-29T05:55:01.051Z,10.74
2022-12-29T05:57:31.037Z,10.63
2022-12-29T06:00:12.226Z,10.80
2022-12-29T06:02:42.897Z,10.93
2022-12-29T06:05:11.077Z,10.86
2022-12-29T06:07:40.064Z,10.98
2022-12-29T06:10:08.106Z,11.02
2022-12-29T06:12:58.683Z,11.13
2022-12-29T06:15:26.135Z,11.07
2022-12-29T06:17:54.869Z,10.98
2022-12-29T06:20:23.641Z,11.01
2022-12-29T06:22:51.287Z,10.92
2022-12-29T06:25:18.988Z,10.99
2022-12-29T06:27:46.442Z,10.86
2022-12-29T06:30:14.367Z,10.74
2022-12-29T06:32:42.574Z,10.81
2022-12-29T06:35:12.498Z,11.02
2022-12-29T06:37:45.551Z,10.95
2022-12-29T06:40:13.352Z,11.09
2022-12-29T06:43:00.961Z,11.05
2022-12-29T06:45:56.488Z,11.17
2022-12-29T06:48:23.955Z,11.21
2022-12-29T06:50:51.391Z,11.22
2022-12-29T06:53:18.753Z,11.23
2022-12-29T06:55:46.128Z,11.35
2022-12-29T06:58:13.597Z,11.34
2022-12-29T07:00:41.004Z,11.55
2022-12-29T07:03:08.489Z,11.47
2022-12-29T07:05:35.932Z,11.44
2022-12-29T07:08:03.272Z,11.41
2022-12-29T07:10:30.714Z,11.49
2022-12-29T07:12:58.154Z,11.56
2022-12-29T07:15:25.493Z,11.48
2022-12-29T07:17:52.915Z,11.44
2022-12-29T07:20:26.286Z,11.52
2022-12-29T07:22:54.426Z,11.52
2022-12-29T07:25:21.967Z,11.49
2022-12-29T07:27:49.663Z,11.47
2022-12-29T07:30:17.556Z,11.56
2022-12-29T07:32:44.940Z,11.56
2022-12-29T07:35:12.276Z,11.52
2022-12-29T07:37:39.653Z,11.51
2022-12-29T07:40:07.798Z,11.61
2022-12-29T07:42:35.144Z,11.55
2022-12-29T07:45:02.579Z,11.69
2022-12-29T07:47:36.877Z,11.73
2022-12-29T07:50:04.821Z,11.75
2022-12-29T07:52:32.175Z,11.81
2022-12-29T07:54:59.534Z,11.81
2022-12-29T07:57:31.760Z,11.87
2022-12-29T08:00:00.010Z,12.02
2022-12-29T08:02:27.768Z,11.99
2022-12-29T08:04:55.367Z,11.93
2022-12-29T08:07:22.810Z,11.87
2022-12-29T08:09:50.204Z,11.98
2022-12-29T08:12:17.676Z,11.97
2022-12-29T08:14:45.074Z,11.95
2022-12-29T08:17:12.466Z,12.02
2022-12-29T08:19:40.178Z,11.94
2022-12-29T08:22:07.574Z,11.98
2022-12-29T08:24:34.930Z,12.03
2022-12-29T08:27:11.818Z,12.07
2022-12-29T08:29:43.446Z,12.04
2022-12-29T08:32:10.966Z,11.97
2022-12-29T08:34:38.344Z,12.07
2022-12-29T08:37:05.662Z,12.13
2022-12-29T08:39:32.994Z,12.08
2022-12-29T08:42:00.664Z,12.04
2022-12-29T08:44:27.756Z,12.16
2022-12-29T08:46:54.900Z,12.17
2022-12-29T08:49:21.935Z,12.25
2022-12-29T08:51:48.959Z,12.28
2022-12-29T08:54:15.908Z,12.25
2022-12-29T08:56:42.916Z,12.25
2022-12-29T08:59:09.913Z,12.24
2022-12-29T09:01:41.368Z,12.28
2022-12-29T09:04:17.605Z,12.33
2022-12-29T09:06:46.258Z,12.34
2022-12-29T09:09:14.090Z,12.38
2022-12-29T09:11:42.251Z,12.49
2022-12-29T09:14:09.305Z,12.48
2022-12-29T09:16:37.085Z,12.44
2022-12-29T09:19:04.278Z,12.52
2022-12-29T09:21:31.295Z,12.56
2022-12-29T09:23:58.335Z,12.56
2022-12-29T09:26:25.282Z,12.52
2022-12-29T09:28:52.299Z,12.52
2022-12-29T09:31:19.386Z,12.42
2022-12-29T09:33:46.559Z,12.38
2022-12-29T09:36:13.608Z,12.45
2022-12-29T09:38:40.598Z,12.38
2022-12-29T09:41:23.492Z,12.42
2022-12-29T09:44:07.653Z,12.37
2022-12-29T09:46:49.044Z,12.42
2022-12-29T09:49:43.337Z,12.40
2022-12-29T09:52:33.811Z,12.39
2022-12-29T09:55:13.789Z,12.45
2022-12-29T09:57:50.138Z,12.49
2022-12-29T10:00:24.111Z,12.55
2022-12-29T10:03:04.128Z,12.55
2022-12-29T10:05:50.968Z,12.60
2022-12-29T10:08:41.093Z,12.62
2022-12-29T10:11:36.981Z,12.76
2022-12-29T10:14:22.231Z,12.86
2022-12-29T10:17:06.218Z,12.85
2022-12-29T10:19:48.690Z,12.80
2022-12-29T10:22:29.453Z,12.73
2022-12-29T10:25:03.595Z,12.67
2022-12-29T10:27:34.012Z,12.64
2022-12-29T10:30:03.573Z,12.58
2022-12-29T10:32:39.717Z,12.46
2022-12-29T10:35:17.488Z,12.26
2022-12-29T10:37:58.215Z,12.00
2022-12-29T10:40:48.379Z,12.01
2022-12-29T10:43:33.700Z,12.23
2022-12-29T10:46:06.502Z,12.33
2022-12-29T10:48:36.305Z,12.36
2022-12-29T10:51:09.533Z,12.40
2022-12-29T10:54:00.844Z,12.35
2022-12-29T10:56:47.320Z,12.40
2022-12-29T10:59:28.932Z,12.32
2022-12-29T11:02:07.818Z,11.94
2022-12-29T11:05:06.271Z,11.71
2022-12-29T11:07:33.411Z,11.65
2022-12-29T11:10:22.624Z,11.70
2022-12-29T11:13:02.992Z,11.87
2022-12-29T11:15:51.034Z,11.85
2022-12-29T11:18:47.812Z,11.70
2022-12-29T11:21:43.115Z,11.72
2022-12-29T11:24:45.977Z,11.93
2022-12-29T11:27:25.707Z,12.15
2022-12-29T11:29:55.017Z,12.35
2022-12-29T11:32:28.871Z,12.27
2022-12-29T11:34:59.758Z,12.28
2022-12-29T11:37:40.705Z,12.29
2022-12-29T11:40:21.832Z,12.27
2022-12-29T11:42:57.569Z,12.35
2022-12-29T11:45:28.212Z,12.38
2022-12-29T11:48:00.289Z,12.40
2022-12-29T11:50:34.308Z,12.32
2022-12-29T11:53:45.216Z,12.31
2022-12-29T11:56:17.591Z,12.21
2022-12-29T11:58:45.109Z,12.13
2022-12-29T12:01:22.145Z,12.10
2022-12-29T12:04:04.439Z,12.16
2022-12-29T12:06:41.771Z,12.05
2022-12-29T12:09:48.470Z,11.80
2022-12-29T12:12:47.441Z,11.54
2022-12-29T12:15:32.932Z,11.59
2022-12-29T12:18:24.132Z,11.71
2022-12-29T12:21:02.179Z,11.81
2022-12-29T12:24:04.912Z,11.91
2022-12-29T12:26:45.134Z,11.85
2022-12-29T12:29:21.996Z,11.78
2022-12-29T12:31:58.403Z,11.68
2022-12-29T12:34:39.404Z,11.50
2022-12-29T12:37:46.604Z,11.40
2022-12-29T12:40:50.081Z,11.40
2022-12-29T12:43:29.443Z,11.26
2022-12-29T12:46:33.023Z,11.35
2022-12-29T12:49:18.289Z,11.39
2022-12-29T12:52:05.959Z,11.41
2022-12-29T12:54:51.175Z,11.50
2022-12-29T12:58:21.096Z,11.56
2022-12-29T13:01:19.943Z,11.62
2022-12-29T13:04:17.836Z,11.52
2022-12-29T13:07:08.803Z,11.62
2022-12-29T13:09:44.690Z,11.69
2022-12-29T13:12:27.256Z,11.86
2022-12-29T13:15:07.689Z,11.92
2022-12-29T13:17:58.800Z,11.82
2022-12-29T13:20:44.815Z,11.79
2022-12-29T13:23:32.906Z,11.89
2022-12-29T13:26:22.232Z,11.88
2022-12-29T13:29:30.718Z,11.96
2022-12-29T13:32:29.924Z,12.04
2022-12-29T13:35:12.492Z,12.08
2022-12-29T13:38:24.224Z,12.05
2022-12-29T13:41:05.075Z,11.99
2022-12-29T13:43:35.490Z,11.96
2022-12-29T13:46:26.034Z,11.96
2022-12-29T13:48:59.727Z,11.93
2022-12-29T13:51:28.592Z,11.87
2022-12-29T13:54:13.626Z,11.86
2022-12-29T13:57:24.140Z,11.83
2022-12-29T14:00:19.633Z,11.81
2022-12-29T14:02:46.765Z,11.78
2022-12-29T14:05:22.639Z,11.80
2022-12-29T14:08:04.594Z,11.82
2022-12-29T14:10:51.763Z,11.77
2022-12-29T14:13:24.853Z,11.80
2022-12-29T14:15:59.923Z,11.75
2022-12-29T14:18:30.612Z,11.83
2022-12-29T14:21:23.699Z,11.83
2022-12-29T14:23:52.315Z,11.84
2022-12-29T14:26:36.434Z,11.77
2022-12-29T14:29:25.335Z,11.75
2022-12-29T14:31:53.662Z,11.75
2022-12-29T14:34:28.277Z,11.71
2022-12-29T14:37:03.610Z,11.70
2022-12-29T14:39:44.031Z,11.63
2022-12-29T14:42:11.007Z,11.66
2022-12-29T14:44:49.812Z,11.66
2022-12-29T14:47:31.819Z,11.63
2022-12-29T14:50:14.029Z,11.63
2022-12-29T14:52:52.998Z,11.61
2022-12-29T14:55:37.616Z,11.61
2022-12-29T14:58:14.082Z,11.57
2022-12-29T15:00:42.739Z,11.53
2022-12-29T15:03:18.543Z,11.52
2022-12-29T15:05:50.688Z,11.47
2022-12-29T15:08:25.913Z,11.43
2022-12-29T15:11:00.166Z,11.47
2022-12-29T15:13:37.698Z,11.49
2022-12-29T15:16:06.048Z,11.46
2022-12-29T15:18:34.391Z,11.46
2022-12-29T15:21:08.009Z,11.49
2022-12-29T15:23:38.503Z,11.42
2022-12-29T15:26:08.340Z,11.42
2022-12-29T15:28:43.796Z,11.49
2022-12-29T15:31:29.472Z,11.47
2022-12-29T15:34:12.986Z,11.48
2022-12-29T15:36:42.490Z,11.46
2022-12-29T15:39:30.592Z,11.53
2022-12-29T15:42:06.416Z,11.49
2022-12-29T15:44:41.216Z,11.53
2022-12-29T15:47:20.718Z,11.52
2022-12-29T15:49:54.395Z,11.55
2022-12-29T15:52:23.594Z,11.47
2022-12-29T15:54:52.811Z,11.38
2022-12-29T15:57:24.898Z,10.55
2022-12-29T15:59:52.780Z,9.83
2022-12-29T16:02:20.271Z,9.49
2022-12-29T16:05:15.910Z,9.38
2022-12-29T16:07:41.693Z,9.20
2022-12-29T16:10:30.148Z,9.13
2022-12-29T16:13:11.872Z,9.03
2022-12-29T16:15:39.249Z,8.93
2022-12-29T16:18:06.584Z,8.95
2022-12-29T16:20:41.497Z,8.96
2022-12-29T16:23:19.494Z,8.98
2022-12-29T16:25:47.165Z,8.85
2022-12-29T16:28:19.438Z,8.88
2022-12-29T16:30:46.941Z,8.85
2022-12-29T16:33:34.154Z,8.84
2022-12-29T16:36:02.805Z,8.92
2022-12-29T16:38:35.307Z,8.85
2022-12-29T16:41:03.883Z,8.85
2022-12-29T16:43:43.444Z,8.68
2022-12-29T16:46:28.407Z,8.49
2022-12-29T16:48:57.538Z,8.38
2022-12-29T16:51:37.544Z,8.35
2022-12-29T16:54:05.748Z,8.36
2022-12-29T16:56:37.280Z,8.34
2022-12-29T16:59:26.931Z,8.32
2022-12-29T17:01:54.104Z,8.34
2022-12-29T17:04:21.158Z,8.46
2022-12-29T17:06:48.549Z,8.46
2022-12-29T17:09:21.165Z,8.46
2022-12-29T17:12:01.580Z,8.43
2022-12-29T17:14:56.271Z,8.44
2022-12-29T17:17:33.548Z,8.40
2022-12-29T17:20:18.954Z,8.34
2022-12-29T17:22:46.575Z,8.34
2022-12-29T17:25:15.977Z,8.24
2022-12-29T17:27:51.399Z,8.17
2022-12-29T17:30:27.074Z,8.16
2022-12-29T17:33:09.055Z,8.12
2022-12-29T17:35:36.385Z,8.11
2022-12-29T17:38:03.704Z,8.10
2022-12-29T17:40:33.071Z,8.09
2022-12-29T17:43:03.103Z,8.09
2022-12-29T17:45:32.748Z,8.08
2022-12-29T17:48:01.785Z,8.09
2022-12-29T17:50:31.009Z,8.06
2022-12-29T17:53:04.352Z,8.03
2022-12-29T17:55:37.519Z,8.02
2022-12-29T17:58:32.837Z,8.04
2022-12-29T18:01:02.188Z,8.08
2022-12-29T18:03:34.483Z,8.09
2022-12-29T18:06:02.954Z,8.08
2022-12-29T18:08:30.487Z,8.09
2022-12-29T18:10:57.811Z,8.02
2022-12-29T18:13:40.452Z,8.01
2022-12-29T18:16:13.599Z,7.98
2022-12-29T18:18:40.576Z,8.05
2022-12-29T18:21:15.687Z,8.06
2022-12-29T18:23:42.879Z,8.07
2022-12-29T18:26:23.933Z,8.09
2022-12-29T18:28:55.396Z,8.13
2022-12-29T18:31:26.797Z,8.16
2022-12-29T18:33:54.805Z,8.21
2022-12-29T18:36:22.831Z,8.17
2022-12-29T18:38:54.601Z,8.11
2022-12-29T18:41:29.641Z,8.14
2022-12-29T18:43:57.882Z,8.10
2022-12-29T18:46:25.404Z,8.08
2022-12-29T18:48:53.437Z,8.01
2022-12-29T18:51:23.931Z,8.01
2022-12-29T18:53:54.480Z,7.96
2022-12-29T18:56:23.148Z,7.97
2022-12-29T18:58:51.593Z,7.95
2022-12-29T19:01:27.760Z,7.93
2022-12-29T19:03:55.245Z,7.88
2022-12-29T19:06:22.344Z,7.87
2022-12-29T19:08:50.113Z,7.90
2022-12-29T19:11:17.931Z,7.84
2022-12-29T19:13:45.366Z,7.74
2022-12-29T19:16:21.400Z,7.74
2022-12-29T19:19:05.728Z,7.76
2022-12-29T19:21:36.441Z,7.79
2022-12-29T19:24:03.516Z,7.71
2022-12-29T19:26:34.690Z,7.69
2022-12-29T19:29:02.681Z,7.68
2022-12-29T19:31:30.124Z,7.62
2022-12-29T19:33:57.524Z,7.56
2022-12-29T19:36:24.910Z,7.57
2022-12-29T19:38:52.300Z,7.53
2022-12-29T19:41:19.663Z,7.54
2022-12-29T19:43:47.205Z,7.49
2022-12-29T19:46:18.445Z,7.44
2022-12-29T19:48:45.895Z,7.44
2022-12-29T19:51:18.515Z,7.41
2022-12-29T19:53:46.325Z,7.43
2022-12-29T19:56:14.644Z,7.37
2022-12-29T19:58:46.998Z,7.40
2022-12-29T20:01:20.661Z,7.43
2022-12-29T20:03:48.687Z,7.38
2022-12-29T20:06:16.673Z,7.43
2022-12-29T20:08:44.141Z,7.43
2022-12-29T20:11:14.606Z,7.39
2022-12-29T20:13:42.265Z,7.41
2022-12-29T20:16:13.904Z,7.35
2022-12-29T20:18:41.558Z,7.33
2022-12-29T20:21:14.635Z,7.32
2022-12-29T20:23:43.247Z,7.33
2022-12-29T20:26:18.791Z,7.32
2022-12-29T20:28:46.609Z,7.25
2022-12-29T20:31:20.712Z,7.24
2022-12-29T20:33:48.331Z,7.26
2022-12-29T20:36:18.832Z,7.20
2022-12-29T20:38:46.851Z,7.17
2022-12-29T20:41:14.832Z,7.15
2022-12-29T20:43:42.454Z,7.15
2022-12-29T20:46:11.203Z,7.10
2022-12-29T20:48:38.939Z,7.06
2022-12-29T20:51:06.369Z,7.04
2022-12-29T20:53:34.232Z,7.07
2022-12-29T20:56:04.815Z,7.06
2022-12-29T20:58:32.480Z,7.07
2022-12-29T21:01:06.303Z,7.09
2022-12-29T21:03:34.173Z,7.04
2022-12-29T21:06:01.754Z,7.08
2022-12-29T21:08:30.263Z,7.05
2022-12-29T21:11:00.739Z,7.14
2022-12-29T21:13:28.976Z,7.11
2022-12-29T21:16:01.387Z,7.05
2022-12-29T21:18:29.434Z,7.07
2022-12-29T21:21:02.310Z,7.03
2022-12-29T21:23:30.059Z,6.98
2022-12-29T21:25:57.835Z,7.03
2022-12-29T21:28:25.774Z,6.97
2022-12-29T21:30:53.805Z,6.97
2022-12-29T21:33:21.878Z,6.92
2022-12-29T21:35:49.380Z,6.91
2022-12-29T21:38:16.848Z,6.88
2022-12-29T21:40:44.312Z,6.86
2022-12-29T21:43:12.554Z,6.82
2022-12-29T21:45:40.016Z,6.83
2022-12-29T21:48:27.863Z,6.79
2022-12-29T21:51:17.987Z,6.78
2022-12-29T21:53:45.954Z,6.82
2022-12-29T21:56:18.556Z,6.83
2022-12-29T21:59:08.996Z,6.83
2022-12-29T22:01:56.947Z,6.83
2022-12-29T22:04:44.480Z,6.81
2022-12-29T22:07:31.633Z,6.82
2022-12-29T22:10:17.483Z,6.86
2022-12-29T22:13:20.037Z,6.79
2022-12-29T22:15:47.468Z,6.86
2022-12-29T22:18:14.823Z,6.84
2022-12-29T22:20:42.221Z,6.83
2022-12-29T22:23:09.905Z,6.84
2022-12-29T22:25:40.207Z,6.85
2022-12-29T22:28:07.610Z,6.83
2022-12-29T22:30:34.941Z,6.79
2022-12-29T22:33:02.432Z,6.74
2022-12-29T22:35:29.840Z,6.69
2022-12-29T22:37:57.200Z,6.70
2022-12-29T22:40:25.697Z,6.75
2022-12-29T22:42:53.074Z,6.73
2022-12-29T22:45:20.441Z,6.76
2022-12-29T22:47:47.791Z,6.72
2022-12-29T22:50:15.196Z,6.67
2022-12-29T22:52:42.559Z,6.69
2022-12-29T22:55:10.101Z,6.72
2022-12-29T22:57:37.521Z,6.67
2022-12-29T23:00:08.629Z,6.69
2022-12-29T23:02:36.208Z,6.68
2022-12-29T23:05:05.324Z,6.70
2022-12-29T23:07:34.420Z,6.62
2022-12-29T23:10:02.351Z,6.67
2022-12-29T23:12:31.173Z,6.62
2022-12-29T23:14:58.524Z,6.59
2022-12-29T23:17:25.952Z,6.65
2022-12-29T23:19:53.501Z,6.57
2022-12-29T23:22:20.980Z,6.51
2022-12-29T23:24:48.307Z,6.55
2022-12-29T23:27:15.788Z,6.55
2022-12-29T23:29:43.103Z,6.54
2022-12-29T23:32:10.729Z,6.55
2022-12-29T23:34:38.151Z,6.45
2022-12-29T23:37:05.589Z,6.42
2022-12-29T23:39:32.904Z,6.42
2022-12-29T23:42:00.325Z,6.53
2022-12-29T23:44:27.687Z,6.49
2022-12-29T23:46:55.063Z,6.50
2022-12-29T23:49:22.987Z,6.49
2022-12-29T23:51:50.350Z,6.47
2022-12-29T23:54:17.734Z,6.39
2022-12-29T23:56:45.091Z,6.37
2022-12-29T23:59:12.413Z,6.38
